createdAt,value
2023-03-26T00:00:11.051Z,8.23
2023-03-26T00:01:11.073Z,8.22
2023-03-26T00:02:11.070Z,8.22
2023-03-26T00:03:11.204Z,8.22
2023-03-26T00:04:11.019Z,8.23
2023-03-26T00:05:11.056Z,8.28
2023-03-26T00:06:10.991Z,8.30
2023-03-26T00:07:11.026Z,8.30
2023-03-26T00:08:10.972Z,8.29
2023-03-26T00:09:10.987Z,8.26
2023-03-26T00:10:10.950Z,8.26
2023-03-26T00:11:10.970Z,8.25
2023-03-26T00:12:10.924Z,8.28
2023-03-26T00:13:10.941Z,8.26
2023-03-26T00:14:10.904Z,8.28
2023-03-26T00:15:10.933Z,8.29
2023-03-26T00:16:10.920Z,8.28
2023-03-26T00:17:10.907Z,8.29
2023-03-26T00:18:10.917Z,8.29
2023-03-26T00:19:10.868Z,8.29
2023-03-26T00:20:10.840Z,8.33
2023-03-26T00:21:10.859Z,8.33
2023-03-26T00:22:10.818Z,8.30
2023-03-26T00:23:10.841Z,8.29
2023-03-26T00:24:10.798Z,8.29
2023-03-26T00:25:10.809Z,8.28
2023-03-26T00:26:10.805Z,8.29
2023-03-26T00:27:10.795Z,8.29
2023-03-26T00:28:10.753Z,8.28
2023-03-26T00:29:10.761Z,8.29
2023-03-26T00:30:10.732Z,8.29
2023-03-26T00:31:10.824Z,8.33
2023-03-26T00:32:10.741Z,8.33
2023-03-26T00:33:10.759Z,8.33
2023-03-26T00:34:10.700Z,8.33
2023-03-26T00:35:10.700Z,8.30
2023-03-26T00:36:10.737Z,8.30
2023-03-26T00:37:10.717Z,8.28
2023-03-26T00:38:10.655Z,8.28
2023-03-26T00:39:10.680Z,8.28
2023-03-26T00:40:10.628Z,8.28
2023-03-26T00:41:10.635Z,8.28
2023-03-26T00:42:10.620Z,8.25
2023-03-26T00:43:10.641Z,8.26
2023-03-26T00:44:10.599Z,8.28
2023-03-26T00:45:10.592Z,8.26
2023-03-26T00:46:10.672Z,8.26
2023-03-26T00:47:10.601Z,8.23
2023-03-26T00:48:10.593Z,8.25
2023-03-26T00:49:10.714Z,8.23
2023-03-26T00:50:10.529Z,8.20
2023-03-26T00:51:10.553Z,8.20
2023-03-26T00:52:10.508Z,8.19
2023-03-26T00:53:10.555Z,8.19
2023-03-26T00:54:10.503Z,8.16
2023-03-26T00:55:10.504Z,8.18
2023-03-26T00:56:10.470Z,8.16
2023-03-26T00:57:10.555Z,8.16
2023-03-26T00:58:10.448Z,8.15
2023-03-26T00:59:10.452Z,8.12
2023-03-26T01:00:10.572Z,8.15
2023-03-26T01:01:10.472Z,8.15
2023-03-26T01:02:10.427Z,8.15
2023-03-26T01:03:10.566Z,8.15
2023-03-26T01:04:10.427Z,8.20
2023-03-26T01:05:10.422Z,8.20
2023-03-26T01:06:10.382Z,8.23
2023-03-26T01:07:10.383Z,8.22
2023-03-26T01:08:10.333Z,8.23
2023-03-26T01:09:10.366Z,8.20
2023-03-26T01:10:10.316Z,8.20
2023-03-26T01:11:10.355Z,8.20
2023-03-26T01:12:10.301Z,8.19
2023-03-26T01:13:10.302Z,8.20
2023-03-26T01:14:10.277Z,8.19
2023-03-26T01:15:10.305Z,8.20
2023-03-26T01:16:10.303Z,8.20
2023-03-26T01:17:10.272Z,8.20
2023-03-26T01:18:10.233Z,8.22
2023-03-26T01:19:10.320Z,8.22
2023-03-26T01:20:10.219Z,8.22
2023-03-26T01:21:10.230Z,8.25
2023-03-26T01:22:10.197Z,8.22
2023-03-26T01:23:10.202Z,8.20
2023-03-26T01:24:10.179Z,8.18
2023-03-26T01:25:10.170Z,8.19
2023-03-26T01:26:10.144Z,8.16
2023-03-26T01:27:10.164Z,8.15
2023-03-26T01:28:10.122Z,8.12
2023-03-26T01:29:10.138Z,8.11
2023-03-26T01:30:10.114Z,8.11
2023-03-26T01:31:10.152Z,8.10
2023-03-26T01:32:10.091Z,8.11
2023-03-26T01:33:10.266Z,8.12
2023-03-26T01:34:10.070Z,8.10
2023-03-26T01:35:10.087Z,8.11
2023-03-26T01:36:10.122Z,8.12
2023-03-26T01:37:10.062Z,8.12
2023-03-26T01:38:10.019Z,8.15
2023-03-26T01:39:10.021Z,8.15
2023-03-26T01:40:09.999Z,8.15
2023-03-26T01:41:10.013Z,8.15
2023-03-26T01:42:09.974Z,8.11
2023-03-26T01:43:10.007Z,8.12
2023-03-26T01:44:09.954Z,8.12
2023-03-26T01:45:09.975Z,8.16
2023-03-26T01:46:09.962Z,8.15
2023-03-26T01:47:09.941Z,8.16
2023-03-26T01:48:09.917Z,8.16
2023-03-26T01:49:09.916Z,8.15
2023-03-26T01:50:09.896Z,8.18
2023-03-26T01:51:09.897Z,8.16
2023-03-26T01:52:09.890Z,8.16
2023-03-26T01:53:09.896Z,8.16
2023-03-26T01:54:09.845Z,8.19
2023-03-26T01:55:09.851Z,8.19
2023-03-26T01:56:09.832Z,8.20
2023-03-26T01:57:09.883Z,8.23
2023-03-26T01:58:09.814Z,8.22
2023-03-26T01:59:11.971Z,8.20
2023-03-26T02:00:09.798Z,8.20
2023-03-26T02:01:09.805Z,8.19
2023-03-26T02:02:09.869Z,8.16
2023-03-26T02:03:09.871Z,8.15
2023-03-26T02:04:09.743Z,8.12
2023-03-26T02:05:09.773Z,8.08
2023-03-26T02:06:09.720Z,8.07
2023-03-26T02:07:09.746Z,8.05
2023-03-26T02:08:09.771Z,8.05
2023-03-26T02:09:09.742Z,8.04
2023-03-26T02:10:09.681Z,8.01
2023-03-26T02:11:09.875Z,8.01
2023-03-26T02:12:09.657Z,7.97
2023-03-26T02:13:09.675Z,7.95
2023-03-26T02:14:09.671Z,7.92
2023-03-26T02:15:09.662Z,7.92
2023-03-26T02:16:09.630Z,7.92
2023-03-26T02:17:09.617Z,7.89
2023-03-26T02:18:09.590Z,7.87
2023-03-26T02:19:09.613Z,7.87
2023-03-26T02:20:09.578Z,7.85
2023-03-26T02:21:09.594Z,7.82
2023-03-26T02:22:09.567Z,7.79
2023-03-26T02:23:09.574Z,7.79
2023-03-26T02:24:09.532Z,7.74
2023-03-26T02:25:09.558Z,7.74
2023-03-26T02:26:09.509Z,7.72
2023-03-26T02:27:09.533Z,7.72
2023-03-26T02:28:09.486Z,7.68
2023-03-26T02:29:09.492Z,7.64
2023-03-26T02:30:09.472Z,7.64
2023-03-26T02:31:09.515Z,7.63
2023-03-26T02:32:09.441Z,7.64
2023-03-26T02:33:09.492Z,7.61
2023-03-26T02:34:09.422Z,7.63
2023-03-26T02:35:09.456Z,7.63
2023-03-26T02:36:09.463Z,7.63
2023-03-26T02:37:09.407Z,7.64
2023-03-26T02:38:09.381Z,7.64
2023-03-26T02:39:09.408Z,7.67
2023-03-26T02:40:09.357Z,7.63
2023-03-26T02:41:09.372Z,7.64
2023-03-26T02:42:09.350Z,7.63
2023-03-26T02:43:09.354Z,7.61
2023-03-26T02:44:09.318Z,7.61
2023-03-26T02:45:09.338Z,7.61
2023-03-26T02:46:09.442Z,7.58
2023-03-26T02:47:09.305Z,7.58
2023-03-26T02:48:09.273Z,7.57
2023-03-26T02:49:09.292Z,7.55
2023-03-26T02:50:09.261Z,7.53
2023-03-26T02:51:09.279Z,7.52
2023-03-26T02:52:09.249Z,7.49
2023-03-26T02:53:09.258Z,7.48
2023-03-26T02:54:09.210Z,7.43
2023-03-26T02:55:09.222Z,7.42
2023-03-26T02:56:09.193Z,7.40
2023-03-26T02:57:09.247Z,7.39
2023-03-26T02:58:09.176Z,7.40
2023-03-26T02:59:09.183Z,7.35
2023-03-26T03:00:09.149Z,7.34
2023-03-26T03:01:09.199Z,7.31
2023-03-26T03:02:09.190Z,7.30
2023-03-26T03:03:09.168Z,7.30
2023-03-26T03:04:09.104Z,7.34
2023-03-26T03:05:09.129Z,7.32
2023-03-26T03:06:09.084Z,7.30
2023-03-26T03:07:09.089Z,7.28
2023-03-26T03:08:09.061Z,7.25
2023-03-26T03:09:09.084Z,7.24
2023-03-26T03:10:09.039Z,7.20
2023-03-26T03:11:09.058Z,7.16
2023-03-26T03:12:09.021Z,7.15
2023-03-26T03:13:09.040Z,7.13
2023-03-26T03:14:09.011Z,7.13
2023-03-26T03:15:09.015Z,7.13
2023-03-26T03:16:08.978Z,7.09
2023-03-26T03:17:09.002Z,7.09
2023-03-26T03:18:08.960Z,7.05
2023-03-26T03:19:09.000Z,7.05
2023-03-26T03:20:08.937Z,7.05
2023-03-26T03:21:08.942Z,7.05
2023-03-26T03:22:08.917Z,7.02
2023-03-26T03:23:08.925Z,6.98
2023-03-26T03:24:07.999Z,6.95
2023-03-26T03:25:08.924Z,6.95
2023-03-26T03:26:08.881Z,6.91
2023-03-26T03:27:08.878Z,6.88
2023-03-26T03:28:08.865Z,6.85
2023-03-26T03:29:08.873Z,6.80
2023-03-26T03:30:08.866Z,6.76
2023-03-26T03:31:08.962Z,6.74
2023-03-26T03:32:08.813Z,6.76
2023-03-26T03:33:08.899Z,6.74
2023-03-26T03:34:08.797Z,6.74
2023-03-26T03:35:08.816Z,6.77
2023-03-26T03:36:08.781Z,6.76
2023-03-26T03:37:08.778Z,6.77
2023-03-26T03:38:08.750Z,6.79
2023-03-26T03:39:08.755Z,6.76
2023-03-26T03:40:08.727Z,6.74
2023-03-26T03:41:08.765Z,6.73
2023-03-26T03:42:08.710Z,6.71
2023-03-26T03:43:08.731Z,6.70
2023-03-26T03:44:08.690Z,6.67
2023-03-26T03:45:08.708Z,6.64
2023-03-26T03:46:08.731Z,6.64
2023-03-26T03:47:08.672Z,6.59
2023-03-26T03:48:08.740Z,6.59
2023-03-26T03:49:08.655Z,6.55
2023-03-26T03:50:08.639Z,6.58
2023-03-26T03:51:08.646Z,6.58
2023-03-26T03:52:08.612Z,6.56
2023-03-26T03:53:08.616Z,6.55
2023-03-26T03:54:08.584Z,6.54
2023-03-26T03:55:08.608Z,6.54
2023-03-26T03:56:08.580Z,6.54
2023-03-26T03:57:08.639Z,6.54
2023-03-26T03:58:08.557Z,6.56
2023-03-26T03:59:08.532Z,6.59
2023-03-26T04:00:08.536Z,6.62
2023-03-26T04:01:08.509Z,6.66
2023-03-26T04:02:08.526Z,6.67
2023-03-26T04:03:08.568Z,6.69
2023-03-26T04:04:08.657Z,6.74
2023-03-26T04:05:08.467Z,6.76
2023-03-26T04:06:08.490Z,6.84
2023-03-26T04:07:08.465Z,6.88
2023-03-26T04:08:08.465Z,6.91
2023-03-26T04:09:08.425Z,6.89
2023-03-26T04:10:08.460Z,6.89
2023-03-26T04:11:08.409Z,6.92
2023-03-26T04:12:08.410Z,6.89
2023-03-26T04:13:08.392Z,6.88
2023-03-26T04:14:08.406Z,6.87
2023-03-26T04:15:08.387Z,6.85
2023-03-26T04:16:08.440Z,6.85
2023-03-26T04:17:08.339Z,6.85
2023-03-26T04:18:08.425Z,6.85
2023-03-26T04:19:08.320Z,6.88
2023-03-26T04:20:08.333Z,6.85
2023-03-26T04:21:08.309Z,6.87
2023-03-26T04:22:08.306Z,6.89
2023-03-26T04:23:08.279Z,6.89
2023-03-26T04:24:08.282Z,6.88
2023-03-26T04:25:08.370Z,6.91
2023-03-26T04:26:08.276Z,6.89
2023-03-26T04:27:08.240Z,6.89
2023-03-26T04:28:08.263Z,6.89
2023-03-26T04:29:08.216Z,6.92
2023-03-26T04:30:08.251Z,6.92
2023-03-26T04:31:08.231Z,6.89
2023-03-26T04:32:08.218Z,6.89
2023-03-26T04:33:08.187Z,6.87
2023-03-26T04:34:08.191Z,6.85
2023-03-26T04:35:08.159Z,6.84
2023-03-26T04:36:08.183Z,6.85
2023-03-26T04:37:08.144Z,6.81
2023-03-26T04:38:08.136Z,6.80
2023-03-26T04:39:08.060Z,6.79
2023-03-26T04:40:08.117Z,6.80
2023-03-26T04:41:08.072Z,6.80
2023-03-26T04:42:08.048Z,6.79
2023-03-26T04:43:08.066Z,6.79
2023-03-26T04:44:08.075Z,6.79
2023-03-26T04:45:08.049Z,6.77
2023-03-26T04:46:08.023Z,6.77
2023-03-26T04:47:08.037Z,6.76
2023-03-26T04:48:08.058Z,6.73
2023-03-26T04:49:07.969Z,6.71
2023-03-26T04:50:07.959Z,6.71
2023-03-26T04:51:07.945Z,6.71
2023-03-26T04:52:07.954Z,6.69
2023-03-26T04:53:07.905Z,6.69
2023-03-26T04:54:07.916Z,6.67
2023-03-26T04:55:07.890Z,6.66
2023-03-26T04:56:07.910Z,6.66
2023-03-26T04:57:07.899Z,6.67
2023-03-26T04:58:07.899Z,6.66
2023-03-26T04:59:07.847Z,6.67
2023-03-26T05:00:07.848Z,6.66
2023-03-26T05:01:09.794Z,6.67
2023-03-26T05:02:07.831Z,6.69
2023-03-26T05:03:07.857Z,6.70
2023-03-26T05:04:07.866Z,6.69
2023-03-26T05:05:07.784Z,6.69
2023-03-26T05:06:07.799Z,6.70
2023-03-26T05:07:07.760Z,6.71
2023-03-26T05:08:14.315Z,6.74
2023-03-26T05:09:07.772Z,6.73
2023-03-26T05:10:07.790Z,6.74
2023-03-26T05:11:07.717Z,6.74
2023-03-26T05:12:07.759Z,6.76
2023-03-26T05:13:07.724Z,6.74
2023-03-26T05:14:07.724Z,6.77
2023-03-26T05:15:07.700Z,6.79
2023-03-26T05:16:07.748Z,6.79
2023-03-26T05:17:07.659Z,6.79
2023-03-26T05:18:07.705Z,6.81
2023-03-26T05:19:07.646Z,6.80
2023-03-26T05:20:07.661Z,6.84
2023-03-26T05:21:07.618Z,6.81
2023-03-26T05:22:07.639Z,6.84
2023-03-26T05:23:07.618Z,6.84
2023-03-26T05:24:07.613Z,6.85
2023-03-26T05:25:07.592Z,6.85
2023-03-26T05:26:07.627Z,6.85
2023-03-26T05:27:07.554Z,6.87
2023-03-26T05:28:07.606Z,6.84
2023-03-26T05:29:07.544Z,6.85
2023-03-26T05:30:07.551Z,6.87
2023-03-26T05:31:07.548Z,6.85
2023-03-26T05:32:07.543Z,6.85
2023-03-26T05:33:07.562Z,6.84
2023-03-26T05:34:07.498Z,6.81
2023-03-26T05:35:07.464Z,6.81
2023-03-26T05:36:07.531Z,6.80
2023-03-26T05:37:07.475Z,6.81
2023-03-26T05:38:07.460Z,6.80
2023-03-26T05:39:07.480Z,6.81
2023-03-26T05:40:07.448Z,6.80
2023-03-26T05:41:07.421Z,6.80
2023-03-26T05:42:07.427Z,6.81
2023-03-26T05:43:07.425Z,6.81
2023-03-26T05:44:07.414Z,6.81
2023-03-26T05:45:07.372Z,6.84
2023-03-26T05:46:07.466Z,6.85
2023-03-26T05:47:07.367Z,6.87
2023-03-26T05:48:07.414Z,6.87
2023-03-26T05:49:07.355Z,6.88
2023-03-26T05:50:07.371Z,6.89
2023-03-26T05:51:07.307Z,6.88
2023-03-26T05:52:07.321Z,6.89
2023-03-26T05:53:07.336Z,6.89
2023-03-26T05:54:07.283Z,6.91
2023-03-26T05:55:07.265Z,6.91
2023-03-26T05:56:07.275Z,6.94
2023-03-26T05:57:07.282Z,6.97
2023-03-26T05:58:07.287Z,6.97
2023-03-26T05:59:07.241Z,6.98
2023-03-26T06:00:07.279Z,6.99
2023-03-26T06:01:07.201Z,6.99
2023-03-26T06:02:07.253Z,7.02
2023-03-26T06:03:07.391Z,7.05
2023-03-26T06:04:07.232Z,7.07
2023-03-26T06:05:07.182Z,7.09
2023-03-26T06:06:07.193Z,7.13
2023-03-26T06:07:07.149Z,7.12
2023-03-26T06:08:07.147Z,7.13
2023-03-26T06:09:07.127Z,7.16
2023-03-26T06:10:07.116Z,7.20
2023-03-26T06:11:07.103Z,7.24
2023-03-26T06:12:07.114Z,7.28
2023-03-26T06:13:07.080Z,7.31
2023-03-26T06:14:07.106Z,7.35
2023-03-26T06:15:07.058Z,7.39
2023-03-26T06:16:07.109Z,7.45
2023-03-26T06:17:07.041Z,7.50
2023-03-26T06:18:07.095Z,7.52
2023-03-26T06:19:07.063Z,7.53
2023-03-26T06:20:09.241Z,7.52
2023-03-26T06:21:06.981Z,7.52
2023-03-26T06:22:07.008Z,7.53
2023-03-26T06:23:06.977Z,7.58
2023-03-26T06:24:06.974Z,7.57
2023-03-26T06:25:06.961Z,7.52
2023-03-26T06:26:06.954Z,7.53
2023-03-26T06:27:06.959Z,7.53
2023-03-26T06:28:06.944Z,7.55
2023-03-26T06:29:06.926Z,7.58
2023-03-26T06:30:06.925Z,7.63
2023-03-26T06:31:06.927Z,7.61
2023-03-26T06:32:18.525Z,7.64
2023-03-26T06:33:06.892Z,7.68
2023-03-26T06:34:06.956Z,7.68
2023-03-26T06:35:06.877Z,7.71
2023-03-26T06:36:06.866Z,7.74
2023-03-26T06:37:06.842Z,7.74
2023-03-26T06:38:06.850Z,7.72
2023-03-26T06:39:07.618Z,7.75
2023-03-26T06:40:06.843Z,7.79
2023-03-26T06:41:06.806Z,7.82
2023-03-26T06:42:06.784Z,7.87
2023-03-26T06:43:10.653Z,7.87
2023-03-26T06:44:06.788Z,7.92
2023-03-26T06:45:06.761Z,7.92
2023-03-26T06:46:06.814Z,7.95
2023-03-26T06:47:06.721Z,7.95
2023-03-26T06:48:06.777Z,7.97
2023-03-26T06:49:06.701Z,8.04
2023-03-26T06:50:06.722Z,8.07
2023-03-26T06:51:06.677Z,8.10
2023-03-26T06:52:06.695Z,8.10
2023-03-26T06:53:06.699Z,8.12
2023-03-26T06:54:06.768Z,8.16
2023-03-26T06:55:06.648Z,8.15
2023-03-26T06:56:08.878Z,8.12
2023-03-26T06:57:06.626Z,8.16
2023-03-26T06:58:06.642Z,8.20
2023-03-26T06:59:06.583Z,8.23
2023-03-26T07:00:06.604Z,8.28
2023-03-26T07:01:05.605Z,8.28
2023-03-26T07:02:06.599Z,8.29
2023-03-26T07:03:06.571Z,8.34
2023-03-26T07:04:06.792Z,8.29
2023-03-26T07:05:06.522Z,8.29
2023-03-26T07:06:06.580Z,8.30
2023-03-26T07:07:06.505Z,8.30
2023-03-26T07:08:06.515Z,8.33
2023-03-26T07:09:06.497Z,8.36
2023-03-26T07:10:06.504Z,8.36
2023-03-26T07:11:06.496Z,8.37
2023-03-26T07:12:06.491Z,8.36
2023-03-26T07:13:06.449Z,8.34
2023-03-26T07:14:06.462Z,8.30
2023-03-26T07:15:06.542Z,8.33
2023-03-26T07:16:06.495Z,8.36
2023-03-26T07:17:06.407Z,8.36
2023-03-26T07:18:06.436Z,8.38
2023-03-26T07:19:06.379Z,8.43
2023-03-26T07:20:06.382Z,8.40
2023-03-26T07:21:06.377Z,8.38
2023-03-26T07:22:06.382Z,8.38
2023-03-26T07:23:06.345Z,8.38
2023-03-26T07:24:06.366Z,8.37
2023-03-26T07:25:06.380Z,8.41
2023-03-26T07:26:06.366Z,8.45
2023-03-26T07:27:06.363Z,8.47
2023-03-26T07:28:06.574Z,8.50
2023-03-26T07:29:06.382Z,8.53
2023-03-26T07:30:06.418Z,8.53
2023-03-26T07:31:06.402Z,8.53
2023-03-26T07:32:06.357Z,8.48
2023-03-26T07:33:06.253Z,8.48
2023-03-26T07:34:06.239Z,8.50
2023-03-26T07:35:06.228Z,8.50
2023-03-26T07:36:06.303Z,8.52
2023-03-26T07:37:06.205Z,8.52
2023-03-26T07:38:06.243Z,8.52
2023-03-26T07:39:06.175Z,8.53
2023-03-26T07:40:06.356Z,8.55
2023-03-26T07:41:06.175Z,8.56
2023-03-26T07:42:06.154Z,8.58
2023-03-26T07:43:06.125Z,8.61
2023-03-26T07:44:06.169Z,8.63
2023-03-26T07:45:06.112Z,8.65
2023-03-26T07:46:06.859Z,8.70
2023-03-26T07:47:06.077Z,8.73
2023-03-26T07:48:06.269Z,8.74
2023-03-26T07:49:06.103Z,8.74
2023-03-26T07:50:06.092Z,8.77
2023-03-26T07:51:06.053Z,8.71
2023-03-26T07:52:06.059Z,8.70
2023-03-26T07:53:06.018Z,8.71
2023-03-26T07:54:06.028Z,8.76
2023-03-26T07:55:06.010Z,8.76
2023-03-26T07:56:06.027Z,8.79
2023-03-26T07:57:06.079Z,8.74
2023-03-26T07:58:05.989Z,8.70
2023-03-26T07:59:05.952Z,8.73
2023-03-26T08:00:05.980Z,8.74
2023-03-26T08:01:05.942Z,8.71
2023-03-26T08:02:05.949Z,8.70
2023-03-26T08:03:05.991Z,8.70
2023-03-26T08:04:23.816Z,8.70
2023-03-26T08:05:05.942Z,8.71
2023-03-26T08:06:05.933Z,8.71
2023-03-26T08:07:05.881Z,8.71
2023-03-26T08:08:05.893Z,8.74
2023-03-26T08:09:05.878Z,8.74
2023-03-26T08:10:05.867Z,8.79
2023-03-26T08:11:05.828Z,8.81
2023-03-26T08:12:05.871Z,8.86
2023-03-26T08:13:05.834Z,8.87
2023-03-26T08:14:05.805Z,8.91
2023-03-26T08:15:05.819Z,8.91
2023-03-26T08:16:05.853Z,8.92
2023-03-26T08:17:05.812Z,8.91
2023-03-26T08:18:05.941Z,8.92
2023-03-26T08:19:05.763Z,8.94
2023-03-26T08:20:05.736Z,8.98
2023-03-26T08:21:05.782Z,8.98
2023-03-26T08:22:05.699Z,8.99
2023-03-26T08:23:05.731Z,8.98
2023-03-26T08:24:05.681Z,9.01
2023-03-26T08:25:05.695Z,9.04
2023-03-26T08:26:05.672Z,9.05
2023-03-26T08:27:05.673Z,9.05
2023-03-26T08:28:05.660Z,9.02
2023-03-26T08:29:05.673Z,8.99
2023-03-26T08:30:05.642Z,8.96
2023-03-26T08:31:05.643Z,8.96
2023-03-26T08:32:05.612Z,8.92
2023-03-26T08:33:05.628Z,8.89
2023-03-26T08:34:05.610Z,8.87
2023-03-26T08:35:05.606Z,8.87
2023-03-26T08:36:05.654Z,8.86
2023-03-26T08:37:05.580Z,8.83
2023-03-26T08:38:05.531Z,8.81
2023-03-26T08:39:05.558Z,8.83
2023-03-26T08:40:05.535Z,8.80
2023-03-26T08:41:05.519Z,8.77
2023-03-26T08:42:05.492Z,8.73
2023-03-26T08:43:05.497Z,8.70
2023-03-26T08:44:05.475Z,8.70
2023-03-26T08:45:05.498Z,8.68
2023-03-26T08:46:05.515Z,8.65
2023-03-26T08:47:05.479Z,8.65
2023-03-26T08:48:05.480Z,8.63
2023-03-26T08:49:05.432Z,8.61
2023-03-26T08:50:05.435Z,8.53
2023-03-26T08:51:05.435Z,8.50
2023-03-26T08:52:05.399Z,8.53
2023-03-26T08:53:05.405Z,8.58
2023-03-26T08:54:05.375Z,8.56
2023-03-26T08:55:05.393Z,8.58
2023-03-26T08:56:05.365Z,8.58
2023-03-26T08:57:05.412Z,8.55
2023-03-26T08:58:05.334Z,8.50
2023-03-26T08:59:05.346Z,8.48
2023-03-26T09:00:05.320Z,8.48
2023-03-26T09:01:05.324Z,8.44
2023-03-26T09:02:05.306Z,8.41
2023-03-26T09:03:05.330Z,8.41
2023-03-26T09:04:05.310Z,8.38
2023-03-26T09:05:05.358Z,8.36
2023-03-26T09:06:05.260Z,8.37
2023-03-26T09:07:05.274Z,8.33
2023-03-26T09:08:05.226Z,8.28
2023-03-26T09:09:05.219Z,8.26
2023-03-26T09:10:05.198Z,8.28
2023-03-26T09:11:05.230Z,8.30
2023-03-26T09:12:05.174Z,8.28
2023-03-26T09:13:05.189Z,8.26
2023-03-26T09:14:05.161Z,8.23
2023-03-26T09:15:05.164Z,8.26
2023-03-26T09:16:05.159Z,8.25
2023-03-26T09:17:05.178Z,8.23
2023-03-26T09:18:05.198Z,8.25
2023-03-26T09:19:05.156Z,8.22
2023-03-26T09:20:05.136Z,8.22
2023-03-26T09:21:05.127Z,8.20
2023-03-26T09:22:05.099Z,8.18
2023-03-26T09:23:05.098Z,8.16
2023-03-26T09:24:05.074Z,8.16
2023-03-26T09:25:05.104Z,8.15
2023-03-26T09:26:05.032Z,8.16
2023-03-26T09:27:05.057Z,8.18
2023-03-26T09:28:05.023Z,8.19
2023-03-26T09:29:05.028Z,8.19
2023-03-26T09:30:05.007Z,8.19
2023-03-26T09:31:05.057Z,8.19
2023-03-26T09:32:04.970Z,8.19
2023-03-26T09:33:05.016Z,8.18
2023-03-26T09:34:04.965Z,8.19
2023-03-26T09:35:04.987Z,8.22
2023-03-26T09:36:04.958Z,8.23
2023-03-26T09:37:04.977Z,8.29
2023-03-26T09:38:04.920Z,8.33
2023-03-26T09:39:04.936Z,8.38
2023-03-26T09:40:04.912Z,8.38
2023-03-26T09:41:04.897Z,8.38
2023-03-26T09:42:04.861Z,8.34
2023-03-26T09:43:04.867Z,8.34
2023-03-26T09:44:04.846Z,8.33
2023-03-26T09:45:04.862Z,8.30
2023-03-26T09:46:04.874Z,8.29
2023-03-26T09:47:04.861Z,8.28
2023-03-26T09:48:04.808Z,8.26
2023-03-26T09:49:04.818Z,8.23
2023-03-26T09:50:04.807Z,8.23
2023-03-26T09:51:04.812Z,8.23
2023-03-26T09:52:04.825Z,8.25
2023-03-26T09:53:04.786Z,8.26
2023-03-26T09:54:04.748Z,8.28
2023-03-26T09:55:04.753Z,8.30
2023-03-26T09:56:04.834Z,8.33
2023-03-26T09:57:04.759Z,8.33
2023-03-26T09:58:04.787Z,8.34
2023-03-26T09:59:04.733Z,8.36
2023-03-26T10:00:04.675Z,8.34
2023-03-26T10:01:04.719Z,8.36
2023-03-26T10:02:04.658Z,8.33
2023-03-26T10:03:04.719Z,8.33
2023-03-26T10:04:04.625Z,8.29
2023-03-26T10:05:04.678Z,8.26
2023-03-26T10:06:04.614Z,8.26
2023-03-26T10:07:04.630Z,8.25
2023-03-26T10:08:04.600Z,8.23
2023-03-26T10:09:04.621Z,8.28
2023-03-26T10:10:04.592Z,8.25
2023-03-26T10:11:04.589Z,8.26
2023-03-26T10:12:04.559Z,8.20
2023-03-26T10:13:14.054Z,8.19
2023-03-26T10:14:04.525Z,8.19
2023-03-26T10:15:04.547Z,8.18
2023-03-26T10:16:03.511Z,8.16
2023-03-26T10:17:04.557Z,8.15
2023-03-26T10:18:04.536Z,8.16
2023-03-26T10:19:04.540Z,8.15
2023-03-26T10:20:04.455Z,8.15
2023-03-26T10:21:04.502Z,8.10
2023-03-26T10:22:04.496Z,8.02
2023-03-26T10:23:04.502Z,7.98
2023-03-26T10:24:04.422Z,7.98
2023-03-26T10:25:04.448Z,8.00
2023-03-26T10:26:04.395Z,7.97
2023-03-26T10:27:09.033Z,7.93
2023-03-26T10:28:04.386Z,7.90
2023-03-26T10:29:04.403Z,7.89
2023-03-26T10:30:04.355Z,7.86
2023-03-26T10:31:04.497Z,7.85
2023-03-26T10:32:04.342Z,7.80
2023-03-26T10:33:04.401Z,7.83
2023-03-26T10:34:04.350Z,7.83
2023-03-26T10:35:04.337Z,7.86
2023-03-26T10:36:04.311Z,7.85
2023-03-26T10:37:04.308Z,7.82
2023-03-26T10:38:04.269Z,7.80
2023-03-26T10:39:04.269Z,7.80
2023-03-26T10:40:04.293Z,7.80
2023-03-26T10:41:04.276Z,7.82
2023-03-26T10:42:04.425Z,7.82
2023-03-26T10:43:04.229Z,7.79
2023-03-26T10:44:08.517Z,7.77
2023-03-26T10:45:05.839Z,7.80
2023-03-26T10:46:04.275Z,7.85
2023-03-26T10:47:04.210Z,7.87
2023-03-26T10:48:04.232Z,7.87
2023-03-26T10:49:04.199Z,7.89
2023-03-26T10:50:04.154Z,7.86
2023-03-26T10:51:04.188Z,7.85
2023-03-26T10:52:04.119Z,7.85
2023-03-26T10:53:04.177Z,7.89
2023-03-26T10:54:04.089Z,7.86
2023-03-26T10:55:04.126Z,7.85
2023-03-26T10:56:04.112Z,7.82
2023-03-26T10:57:04.131Z,7.80
2023-03-26T10:58:04.064Z,7.74
2023-03-26T10:59:04.073Z,7.69
2023-03-26T11:00:04.032Z,7.71
2023-03-26T11:01:06.135Z,7.74
2023-03-26T11:02:04.041Z,7.72
2023-03-26T11:03:04.141Z,7.72
2023-03-26T11:04:04.005Z,7.72
2023-03-26T11:05:04.081Z,7.74
2023-03-26T11:06:04.001Z,7.83
2023-03-26T11:07:05.104Z,7.90
2023-03-26T11:08:03.961Z,7.93
2023-03-26T11:09:10.467Z,7.97
2023-03-26T11:10:03.953Z,7.98
2023-03-26T11:11:03.936Z,8.01
2023-03-26T11:12:26.717Z,8.10
2023-03-26T11:13:04.974Z,8.15
2023-03-26T11:14:03.892Z,8.18
2023-03-26T11:15:03.901Z,8.22
2023-03-26T11:16:03.967Z,8.20
2023-03-26T11:17:03.881Z,8.20
2023-03-26T11:18:03.959Z,8.29
2023-03-26T11:19:05.611Z,8.41
2023-03-26T11:20:03.827Z,8.38
2023-03-26T11:21:18.711Z,8.37
2023-03-26T11:22:03.804Z,8.36
2023-03-26T11:23:03.820Z,8.36
2023-03-26T11:24:05.059Z,8.33
2023-03-26T11:25:05.571Z,8.23
2023-03-26T11:26:03.760Z,8.11
2023-03-26T11:27:14.959Z,8.04
2023-03-26T11:28:03.748Z,7.93
2023-03-26T11:29:31.851Z,7.92
2023-03-26T11:30:03.731Z,7.89
2023-03-26T11:31:03.766Z,7.89
2023-03-26T11:32:03.711Z,7.92
2023-03-26T11:33:03.735Z,7.90
2023-03-26T11:34:03.720Z,7.90
2023-03-26T11:35:03.693Z,7.86
2023-03-26T11:36:03.731Z,7.85
2023-03-26T11:37:03.668Z,7.82
2023-03-26T11:38:03.636Z,7.83
2023-03-26T11:39:03.680Z,7.80
2023-03-26T11:40:03.618Z,7.79
2023-03-26T11:41:03.629Z,7.77
2023-03-26T11:42:03.601Z,7.79
2023-03-26T11:43:03.618Z,7.82
2023-03-26T11:44:03.574Z,7.80
2023-03-26T11:45:03.589Z,7.82
2023-03-26T11:46:03.588Z,7.83
2023-03-26T11:47:03.580Z,7.85
2023-03-26T11:48:03.578Z,7.85
2023-03-26T11:49:03.571Z,7.89
2023-03-26T11:50:03.532Z,7.92
2023-03-26T11:51:03.525Z,7.90
2023-03-26T11:52:03.501Z,7.93
2023-03-26T11:53:03.542Z,7.93
2023-03-26T11:54:03.480Z,7.93
2023-03-26T11:55:03.538Z,7.93
2023-03-26T11:56:03.445Z,7.90
2023-03-26T11:57:05.316Z,7.90
2023-03-26T11:58:03.425Z,7.87
2023-03-26T11:59:03.454Z,7.82
2023-03-26T12:00:03.413Z,7.83
2023-03-26T12:01:03.421Z,7.80
2023-03-26T12:02:03.456Z,7.82
2023-03-26T12:03:03.579Z,7.82
2023-03-26T12:04:03.380Z,7.85
2023-03-26T12:05:03.359Z,7.87
2023-03-26T12:06:03.338Z,7.92
2023-03-26T12:07:03.352Z,7.95
2023-03-26T12:08:03.350Z,7.97
2023-03-26T12:09:03.344Z,7.98
2023-03-26T12:10:18.590Z,7.98
2023-03-26T12:11:03.322Z,8.01
2023-03-26T12:12:03.274Z,8.02
2023-03-26T12:13:03.316Z,8.10
2023-03-26T12:14:03.250Z,8.15
2023-03-26T12:15:03.254Z,8.22
2023-03-26T12:16:03.234Z,8.26
2023-03-26T12:17:03.258Z,8.23
2023-03-26T12:18:03.272Z,8.25
2023-03-26T12:19:03.210Z,8.25
2023-03-26T12:20:03.263Z,8.28
2023-03-26T12:21:03.336Z,8.30
2023-03-26T12:22:03.244Z,8.29
2023-03-26T12:23:03.226Z,8.29
2023-03-26T12:24:03.523Z,8.36
2023-03-26T12:25:03.832Z,8.44
2023-03-26T12:26:03.223Z,8.59
2023-03-26T12:27:02.253Z,8.68
2023-03-26T12:28:03.167Z,8.84
2023-03-26T12:29:03.149Z,8.98
2023-03-26T12:30:02.193Z,9.17
2023-03-26T12:31:03.171Z,9.42
2023-03-26T12:32:03.207Z,9.51
2023-03-26T12:33:03.129Z,9.79
2023-03-26T12:34:03.160Z,10.42
2023-03-26T12:35:03.161Z,10.44
2023-03-26T12:36:03.114Z,10.38
2023-03-26T12:37:03.293Z,10.44
2023-03-26T12:38:03.114Z,11.21
2023-03-26T12:39:17.154Z,12.13
2023-03-26T12:40:20.628Z,13.00
2023-03-26T12:41:03.029Z,13.32
2023-03-26T12:44:44.852Z,13.17
2023-03-26T12:45:02.405Z,12.75
2023-03-26T12:45:08.858Z,11.80
2023-03-26T12:47:59.419Z,11.64
2023-03-26T12:48:08.435Z,11.60
2023-03-26T12:48:14.019Z,12.09
2023-03-26T12:49:14.140Z,13.00
2023-03-26T12:50:13.928Z,13.04
2023-03-26T12:51:13.911Z,12.41
2023-03-26T12:52:13.864Z,13.00
2023-03-26T12:53:13.962Z,13.45
2023-03-26T12:54:13.796Z,14.00
2023-03-26T12:55:13.807Z,14.06
2023-03-26T12:56:13.780Z,14.37
2023-03-26T12:57:13.823Z,14.22
2023-03-26T12:58:14.237Z,14.65
2023-03-26T12:59:13.758Z,15.09
2023-03-26T13:00:13.748Z,15.39
2023-03-26T13:01:13.757Z,15.14
2023-03-26T13:02:13.772Z,15.17
2023-03-26T13:03:13.775Z,14.86
2023-03-26T13:04:13.691Z,15.31
2023-03-26T13:05:13.716Z,16.01
2023-03-26T13:06:13.670Z,16.83
2023-03-26T13:07:13.691Z,17.33
2023-03-26T13:08:13.662Z,17.51
2023-03-26T13:09:13.661Z,17.66
2023-03-26T13:10:13.630Z,17.64
2023-03-26T13:11:13.632Z,17.72
2023-03-26T13:12:13.604Z,17.26
2023-03-26T13:13:13.629Z,17.34
2023-03-26T13:14:13.645Z,17.77
2023-03-26T13:15:13.627Z,16.94
2023-03-26T13:16:13.572Z,16.50
2023-03-26T13:17:13.581Z,16.75
2023-03-26T13:18:13.536Z,17.25